Smit Orleans — CFN5087 — position and weather

sailwx.info

Track history (hours):
 
Tides and Currents Weather Stations Pressure Air Temp Water Temp Dewpoint Dewpoint Depression Visibility Wind Speed Wind Dir Waves Ship Positions

Smit Orleans

Last reported at 2014-Nov-27 05:33 UTC. Time now 2014-Nov-27 06:40 UTC.
Position N 49°17' W 123°04'.

Length 29 m; draft 5.1 m.

Type: . MMSI: 316012721.

Date/timePositionNaut miles runAvg speedWind from/ knotsBaromVisibWave heightAir tempDewpointWater temp
2014-Nov-27 05:33N 49°17' W 123°04'0 0.0
2014-Nov-27 04:33N 49°17' W 123°04'0 0.0
2014-Nov-27 03:33N 49°17' W 123°04'0 0.0
2014-Nov-27 02:33N 49°17' W 123°04'0 0.0
2014-Nov-27 01:33N 49°17' W 123°04'0 0.0
2014-Nov-27 00:34N 49°17' W 123°04'0 0.0
2014-Nov-26 23:33N 49°17' W 123°04'0 0.0
2014-Nov-26 22:33N 49°17' W 123°04'0 0.0
2014-Nov-26 21:33N 49°17' W 123°04'0 0.0
2014-Nov-26 20:33N 49°17' W 123°04'2 1.7
2014-Nov-26 19:33N 49°18' W 123°06'1 0.5
2014-Nov-26 18:34N 49°18' W 123°07'0 0.5
2014-Nov-26 17:33N 49°18' W 123°06'2 1.8
2014-Nov-26 16:33N 49°17' W 123°04'0 0.0
2014-Nov-26 15:33N 49°17' W 123°04'0 0.0
2014-Nov-26 14:33N 49°17' W 123°04'0 0.0
2014-Nov-26 13:33N 49°17' W 123°04'0 0.0
2014-Nov-26 12:33N 49°17' W 123°04'0 0.0
2014-Nov-26 11:33N 49°17' W 123°04'0 0.0
2014-Nov-26 10:33N 49°17' W 123°04'0 0.0
2014-Nov-26 09:33N 49°17' W 123°04'0 0.0
2014-Nov-26 08:33N 49°17' W 123°04'0 0.0
2014-Nov-26 07:33N 49°17' W 123°04'0 0.0
2014-Nov-26 06:33N 49°17' W 123°04'0 0.0
2014-Nov-26 05:33N 49°17' W 123°04'2 1.5
2014-Nov-26 04:34N 49°17' W 123°06'2 1.5
2014-Nov-26 03:33N 49°17' W 123°04'0 0.0
2014-Nov-26 02:33N 49°17' W 123°04'0 0.0
2014-Nov-26 01:34N 49°17' W 123°04'0 0.0
2014-Nov-26 00:34N 49°17' W 123°04'0 0.0
2014-Nov-25 23:34N 49°17' W 123°04'1 0.9
2014-Nov-25 22:33N 49°18' W 123°04'3 2.7
2014-Nov-25 21:33N 49°19' W 123°08'1 1.0
2014-Nov-25 20:34N 49°19' W 123°09'4 3.9
2014-Nov-25 19:33N 49°17' W 123°04'1 0.6
2014-Nov-25 18:34N 49°17' W 123°05'2 2.5
2014-Nov-25 17:33N 49°18' W 123°01'0 0.1
2014-Nov-25 16:33N 49°18' W 123°01'2 2.5
2014-Nov-25 15:33N 49°18' W 123°05'1 0.9
2014-Nov-25 14:33N 49°17' W 123°04'0 0.0
2014-Nov-25 13:33N 49°17' W 123°04'0 0.0
2014-Nov-25 12:34N 49°17' W 123°04'0 0.0
2014-Nov-25 11:33N 49°17' W 123°04'0 0.0
2014-Nov-25 10:33N 49°17' W 123°04'0 0.0
2014-Nov-25 09:33N 49°17' W 123°04'0 0.0
2014-Nov-25 08:33N 49°17' W 123°04'0 0.0
2014-Nov-25 07:33N 49°17' W 123°04'0 0.0
2014-Nov-25 06:33N 49°17' W 123°04'0 0.0
2014-Nov-25 05:33N 49°17' W 123°04'0 0.0
2014-Nov-25 04:33N 49°17' W 123°04'1 0.8
2014-Nov-25 03:33N 49°18' W 123°03'1 0.8
2014-Nov-25 02:33N 49°17' W 123°04'0 0.0
2014-Nov-25 01:33N 49°17' W 123°04'0 0.0
2014-Nov-25 00:33N 49°17' W 123°04'0 0.0
2014-Nov-24 23:33N 49°17' W 123°04'0 0.0
2014-Nov-24 22:33N 49°17' W 123°04'0 0.0
2014-Nov-24 21:33N 49°17' W 123°04'0 0.0
2014-Nov-24 20:34N 49°17' W 123°04'0 0.0
2014-Nov-24 19:34N 49°17' W 123°04'0 0.0
2014-Nov-24 18:34N 49°17' W 123°04'0 0.0
2014-Nov-24 17:33N 49°17' W 123°04'0 0.0
2014-Nov-24 16:33N 49°17' W 123°04'1 1.0
2014-Nov-24 15:33N 49°18' W 123°02'1 1.0
2014-Nov-24 14:34N 49°17' W 123°04'0 0.0
2014-Nov-24 13:34N 49°17' W 123°04'0 0.0
2014-Nov-24 12:33N 49°17' W 123°04'0 0.0
2014-Nov-24 11:33N 49°17' W 123°04'0 0.0
2014-Nov-24 10:33N 49°17' W 123°04'0 0.0
2014-Nov-24 09:33N 49°17' W 123°04'0 0.0
2014-Nov-24 08:33N 49°17' W 123°04'0 0.0
2014-Nov-24 07:33N 49°17' W 123°04'0 0.0
2014-Nov-24 06:33N 49°17' W 123°04'0 0.0
2014-Nov-24 05:33N 49°17' W 123°04'0 0.0
2014-Nov-24 04:34N 49°17' W 123°04'0 0.0
2014-Nov-24 03:34N 49°17' W 123°04'0 0.0
2014-Nov-24 02:33N 49°17' W 123°04'0 0.4
2014-Nov-24 01:33N 49°18' W 123°04'2 2.4
2014-Nov-24 00:34N 49°19' W 123°07'3 2.8
2014-Nov-23 23:34N 49°17' W 123°04'9 8.9
2014-Nov-23 22:34N 49°17' W 123°17'1212.5
2014-Nov-23 21:34N 49°05' W 123°21'1312.8
2014-Nov-23 20:33N 48°56' W 123°07'1110.5
2014-Nov-23 19:34N 48°46' W 123°02'1110.8
2014-Nov-23 18:33N 48°39' W 123°14'1212.4
2014-Nov-23 17:34N 48°27' W 123°10'1111.0
2014-Nov-23 16:33N 48°20' W 123°22'3 3.3
2014-Nov-23 15:33N 48°23' W 123°22'10 9.8
2014-Nov-23 14:33N 48°31' W 123°13'1110.6
2014-Nov-23 13:33N 48°41' W 123°15'1110.1
2014-Nov-23 12:29N 48°47' W 123°01'7 8.0
2014-Nov-23 11:33N 48°53' W 123°07'1111.2
2014-Nov-23 10:33N 49°03' W 123°17'1111.2
2014-Nov-23 09:33N 49°14' W 123°18'9 9.3
2014-Nov-23 08:33N 49°18' W 123°05'5 5.5
2014-Nov-23 07:33N 49°18' W 122°57'0 0.1
2014-Nov-23 06:33N 49°18' W 122°57'2 1.9
2014-Nov-23 05:34N 49°17' W 122°54'2 2.3
2014-Nov-23 04:33N 49°18' W 122°57'4 4.1
2014-Nov-23 03:33N 49°17' W 123°04'0 0.0
2014-Nov-23 02:33N 49°17' W 123°04'0 0.0
2014-Nov-23 01:33N 49°17' W 123°04'0 0.0
2014-Nov-23 00:33N 49°17' W 123°04'0 0.0
2014-Nov-22 23:33N 49°17' W 123°04'0 0.0
2014-Nov-22 22:33N 49°17' W 123°04'0 0.0
2014-Nov-22 21:33N 49°17' W 123°04'0 0.0
2014-Nov-22 20:33N 49°17' W 123°04'0 0.0
2014-Nov-22 19:33N 49°17' W 123°04'0 0.0
2014-Nov-22 18:33N 49°17' W 123°04'0 0.0
2014-Nov-22 17:33N 49°17' W 123°04'0 0.0
2014-Nov-22 16:33N 49°17' W 123°04'0 0.0
2014-Nov-22 15:33N 49°17' W 123°04'3 2.5
2014-Nov-22 14:33N 49°19' W 123°07'1 0.8
2014-Nov-22 13:33N 49°18' W 123°06'2 1.7
2014-Nov-22 12:33N 49°17' W 123°04'0 0.0
2014-Nov-22 11:33N 49°17' W 123°04'0 0.0
2014-Nov-22 10:33N 49°17' W 123°04'0 0.0
2014-Nov-22 09:33N 49°17' W 123°04'0 0.0
2014-Nov-22 08:33N 49°17' W 123°04'0 0.0
2014-Nov-22 07:33N 49°17' W 123°04'0 0.0
2014-Nov-22 06:33N 49°17' W 123°04'0 0.0
2014-Nov-22 05:33N 49°17' W 123°04'0 0.0
2014-Nov-22 04:33N 49°17' W 123°04'0 0.0
2014-Nov-22 03:33N 49°17' W 123°04'0 0.0
2014-Nov-22 02:33N 49°17' W 123°04'0 0.0
2014-Nov-22 01:33N 49°17' W 123°04'0 0.0
2014-Nov-22 00:33N 49°17' W 123°04'0 0.0
2014-Nov-21 23:33N 49°17' W 123°04'0 0.0
2014-Nov-21 22:33N 49°17' W 123°04'0 0.0
2014-Nov-21 21:33N 49°17' W 123°04'0 0.0
2014-Nov-21 20:33N 49°17' W 123°04'0 0.0
2014-Nov-21 19:33N 49°17' W 123°04'0 0.0
2014-Nov-21 18:33N 49°17' W 123°04'0 0.0
2014-Nov-21 17:33N 49°17' W 123°04'0 0.0
2014-Nov-21 16:33N 49°17' W 123°04'1 0.8
2014-Nov-21 15:33N 49°18' W 123°03'0 0.0
2014-Nov-21 14:33N 49°18' W 123°03'1 1.4
2014-Nov-21 13:33N 49°18' W 123°05'1 1.2
2014-Nov-21 12:33N 49°17' W 123°04'0 0.0
2014-Nov-21 11:33N 49°17' W 123°04'0 0.0
2014-Nov-21 10:33N 49°17' W 123°04'0 0.0
2014-Nov-21 09:33N 49°17' W 123°04'2 1.6
2014-Nov-21 08:33N 49°18' W 123°01'1 0.8
2014-Nov-21 07:34N 49°18' W 123°00'1 0.9
2014-Nov-21 06:33N 49°18' W 122°59'2 2.5
2014-Nov-21 05:33N 49°18' W 123°03'1 0.8
2014-Nov-21 04:33N 49°17' W 123°04'0 0.0
2014-Nov-21 03:33N 49°17' W 123°04'0 0.0
2014-Nov-21 02:33N 49°17' W 123°04'0 0.0
2014-Nov-21 01:32N 49°17' W 123°04'1 0.6
2014-Nov-21 00:33N 49°18' W 123°04'1 0.6
2014-Nov-20 23:33N 49°17' W 123°04'0 0.0
2014-Nov-20 22:33N 49°17' W 123°04'6 5.6
2014-Nov-20 21:34N 49°18' W 122°55'0 0.4
2014-Nov-20 20:33N 49°17' W 122°55'6 5.9
2014-Nov-20 19:33N 49°17' W 123°04'0 0.0
2014-Nov-20 18:34N 49°17' W 123°04'0 0.0
2014-Nov-20 17:34N 49°17' W 123°04'0 0.0
2014-Nov-20 16:33N 49°17' W 123°04'0 0.0
2014-Nov-20 15:33N 49°17' W 123°04'0 0.0
2014-Nov-20 14:34N 49°17' W 123°04'0 0.0
2014-Nov-20 13:34N 49°17' W 123°04'0 0.0
2014-Nov-20 12:34N 49°17' W 123°04'0 0.0
2014-Nov-20 11:33N 49°17' W 123°04'0 0.0
2014-Nov-20 10:34N 49°17' W 123°04'0 0.0
2014-Nov-20 09:33N 49°17' W 123°04'0 0.0
2014-Nov-20 08:33N 49°17' W 123°04'0 0.0
2014-Nov-20 07:34N 49°17' W 123°04'0 0.0
2014-Nov-20 06:34N 49°17' W 123°04'0 0.0
2014-Nov-20 05:33N 49°17' W 123°04'0 0.0
2014-Nov-20 04:33N 49°17' W 123°04'0 0.0
2014-Nov-20 03:33N 49°17' W 123°04'0 0.0
2014-Nov-20 02:33N 49°17' W 123°04'0 0.0
2014-Nov-20 01:34N 49°17' W 123°04'0 0.0
2014-Nov-20 00:34N 49°17' W 123°04'0 0.0
2014-Nov-19 23:33N 49°17' W 123°04'0 0.0
2014-Nov-19 22:33N 49°17' W 123°04'0 0.0
2014-Nov-19 21:33N 49°17' W 123°04'0 0.0
2014-Nov-19 20:33N 49°17' W 123°04'0 0.0
2014-Nov-19 19:34N 49°17' W 123°04'0 0.0
2014-Nov-19 18:34N 49°17' W 123°04'0 0.0
2014-Nov-19 17:33N 49°17' W 123°04'0 0.5
2014-Nov-19 16:33N 49°17' W 123°04'1 0.5
2014-Nov-19 15:33N 49°18' W 123°05'1 0.7
2014-Nov-19 14:33N 49°17' W 123°04'1 0.9
2014-Nov-19 13:33N 49°18' W 123°04'1 0.8
2014-Nov-19 12:33N 49°18' W 123°05'1 1.2
2014-Nov-19 11:33N 49°17' W 123°04'0 0.0
2014-Nov-19 10:33N 49°17' W 123°04'0 0.0
2014-Nov-19 09:33N 49°17' W 123°04'0 0.0
2014-Nov-19 08:33N 49°17' W 123°04'0 0.0
2014-Nov-19 07:33N 49°17' W 123°04'0 0.0
2014-Nov-19 06:33N 49°17' W 123°04'1 1.4
2014-Nov-19 05:33N 49°18' W 123°06'2 1.9
2014-Nov-19 04:33N 49°18' W 123°03'0 0.2
2014-Nov-19 03:34N 49°18' W 123°03'1 0.9
2014-Nov-19 02:33N 49°17' W 123°04'0 0.0
2014-Nov-19 01:33N 49°17' W 123°04'0 0.0
2014-Nov-19 00:33N 49°17' W 123°04'0 0.0
2014-Nov-18 23:33N 49°17' W 123°04'0 0.0
2014-Nov-18 22:33N 49°17' W 123°04'0 0.0
2014-Nov-18 21:33N 49°17' W 123°04'0 0.0
2014-Nov-18 20:33N 49°17' W 123°04'0 0.0
2014-Nov-18 19:33N 49°17' W 123°04'0 0.0
2014-Nov-18 18:34N 49°17' W 123°04'0 0.0
2014-Nov-18 17:33N 49°17' W 123°04'0 0.0
2014-Nov-18 16:33N 49°17' W 123°04'0 0.0
2014-Nov-18 15:34N 49°17' W 123°04'0 0.0
2014-Nov-18 14:34N 49°17' W 123°04'2 2.3
2014-Nov-18 13:34N 49°18' W 123°07'0 0.3
2014-Nov-18 12:33N 49°19' W 123°07'5 5.2
2014-Nov-18 11:33N 49°18' W 122°59'4 4.1
2014-Nov-18 10:33N 49°18' W 122°53'0 0.0
2014-Nov-18 09:33N 49°18' W 122°53'7 7.1
2014-Nov-18 08:34N 49°17' W 123°04'0 0.0
2014-Nov-18 07:34N 49°17' W 123°04'0 0.0
2014-Nov-18 06:34N 49°17' W 123°04'0 0.0
2014-Nov-18 05:34N 49°17' W 123°04'1 1.1
2014-Nov-18 04:33N 49°18' W 123°02'1 1.1
2014-Nov-18 03:33N 49°17' W 123°04'0 0.0
2014-Nov-18 02:33N 49°17' W 123°04'0 0.0
2014-Nov-18 01:33N 49°17' W 123°04'1 1.4
2014-Nov-18 00:33N 49°17' W 123°06'1 1.1
2014-Nov-17 23:34N 49°18' W 123°05'0 0.5
2014-Nov-17 22:34N 49°18' W 123°04'1 0.7
2014-Nov-17 21:33N 49°17' W 123°04'0 0.0
2014-Nov-17 20:33N 49°17' W 123°04'0 0.0
2014-Nov-17 19:33N 49°17' W 123°04'0 0.0
2014-Nov-17 18:33N 49°17' W 123°04'0 0.0
2014-Nov-17 17:33N 49°17' W 123°04'0 0.0
2014-Nov-17 16:33N 49°17' W 123°04'0 0.0
2014-Nov-17 15:33N 49°17' W 123°04'1 1.1
2014-Nov-17 14:33N 49°18' W 123°02'1 1.1
2014-Nov-17 13:33N 49°17' W 123°04'0 0.0
2014-Nov-17 12:33N 49°17' W 123°04'0 0.4
2014-Nov-17 11:33N 49°17' W 123°04'0 0.1
2014-Nov-17 10:33N 49°17' W 123°04'5 4.7
2014-Nov-17 09:33N 49°19' W 123°11'1 1.3
2014-Nov-17 08:33N 49°19' W 123°13'6 6.4
2014-Nov-17 07:33N 49°17' W 123°04'0 0.0
2014-Nov-17 06:33N 49°17' W 123°04'0 0.0
2014-Nov-17 05:33N 49°17' W 123°04'  
Track history (hours):
 
Tides and Currents Weather Stations Pressure Air Temp Water Temp Dewpoint Dewpoint Depression Visibility Wind Speed Wind Dir Waves Ship Positions

Smit Orleans

Last reported at 2014-Nov-27 05:33 UTC. Time now 2014-Nov-27 06:40 UTC.
Position N 49°17' W 123°04'.

Length 29 m; draft 5.1 m.

Type: . MMSI: 316012721.

Date/timePositionNaut miles runAvg speedWind from/ knotsBaromVisibWave heightAir tempDewpointWater temp
2014-Nov-27 05:33N 49°17' W 123°04'0 0.0
2014-Nov-27 04:33N 49°17' W 123°04'0 0.0
2014-Nov-27 03:33N 49°17' W 123°04'0 0.0
2014-Nov-27 02:33N 49°17' W 123°04'0 0.0
2014-Nov-27 01:33N 49°17' W 123°04'0 0.0
2014-Nov-27 00:34N 49°17' W 123°04'0 0.0
2014-Nov-26 23:33N 49°17' W 123°04'0 0.0
2014-Nov-26 22:33N 49°17' W 123°04'0 0.0
2014-Nov-26 21:33N 49°17' W 123°04'0 0.0
2014-Nov-26 20:33N 49°17' W 123°04'2 1.7
2014-Nov-26 19:33N 49°18' W 123°06'1 0.5
2014-Nov-26 18:34N 49°18' W 123°07'0 0.5
2014-Nov-26 17:33N 49°18' W 123°06'2 1.8
2014-Nov-26 16:33N 49°17' W 123°04'0 0.0
2014-Nov-26 15:33N 49°17' W 123°04'0 0.0
2014-Nov-26 14:33N 49°17' W 123°04'0 0.0
2014-Nov-26 13:33N 49°17' W 123°04'0 0.0
2014-Nov-26 12:33N 49°17' W 123°04'0 0.0
2014-Nov-26 11:33N 49°17' W 123°04'0 0.0
2014-Nov-26 10:33N 49°17' W 123°04'0 0.0
2014-Nov-26 09:33N 49°17' W 123°04'0 0.0
2014-Nov-26 08:33N 49°17' W 123°04'0 0.0
2014-Nov-26 07:33N 49°17' W 123°04'0 0.0
2014-Nov-26 06:33N 49°17' W 123°04'0 0.0
2014-Nov-26 05:33N 49°17' W 123°04'2 1.5
2014-Nov-26 04:34N 49°17' W 123°06'2 1.5
2014-Nov-26 03:33N 49°17' W 123°04'0 0.0
2014-Nov-26 02:33N 49°17' W 123°04'0 0.0
2014-Nov-26 01:34N 49°17' W 123°04'0 0.0
2014-Nov-26 00:34N 49°17' W 123°04'0 0.0
2014-Nov-25 23:34N 49°17' W 123°04'1 0.9
2014-Nov-25 22:33N 49°18' W 123°04'3 2.7
2014-Nov-25 21:33N 49°19' W 123°08'1 1.0
2014-Nov-25 20:34N 49°19' W 123°09'4 3.9
2014-Nov-25 19:33N 49°17' W 123°04'1 0.6
2014-Nov-25 18:34N 49°17' W 123°05'2 2.5
2014-Nov-25 17:33N 49°18' W 123°01'0 0.1
2014-Nov-25 16:33N 49°18' W 123°01'2 2.5
2014-Nov-25 15:33N 49°18' W 123°05'1 0.9
2014-Nov-25 14:33N 49°17' W 123°04'0 0.0
2014-Nov-25 13:33N 49°17' W 123°04'0 0.0
2014-Nov-25 12:34N 49°17' W 123°04'0 0.0
2014-Nov-25 11:33N 49°17' W 123°04'0 0.0
2014-Nov-25 10:33N 49°17' W 123°04'0 0.0
2014-Nov-25 09:33N 49°17' W 123°04'0 0.0
2014-Nov-25 08:33N 49°17' W 123°04'0 0.0
2014-Nov-25 07:33N 49°17' W 123°04'0 0.0
2014-Nov-25 06:33N 49°17' W 123°04'0 0.0
2014-Nov-25 05:33N 49°17' W 123°04'0 0.0
2014-Nov-25 04:33N 49°17' W 123°04'1 0.8
2014-Nov-25 03:33N 49°18' W 123°03'1 0.8
2014-Nov-25 02:33N 49°17' W 123°04'0 0.0
2014-Nov-25 01:33N 49°17' W 123°04'0 0.0
2014-Nov-25 00:33N 49°17' W 123°04'0 0.0
2014-Nov-24 23:33N 49°17' W 123°04'0 0.0
2014-Nov-24 22:33N 49°17' W 123°04'0 0.0
2014-Nov-24 21:33N 49°17' W 123°04'0 0.0
2014-Nov-24 20:34N 49°17' W 123°04'0 0.0
2014-Nov-24 19:34N 49°17' W 123°04'0 0.0
2014-Nov-24 18:34N 49°17' W 123°04'0 0.0
2014-Nov-24 17:33N 49°17' W 123°04'0 0.0
2014-Nov-24 16:33N 49°17' W 123°04'1 1.0
2014-Nov-24 15:33N 49°18' W 123°02'1 1.0
2014-Nov-24 14:34N 49°17' W 123°04'0 0.0
2014-Nov-24 13:34N 49°17' W 123°04'0 0.0
2014-Nov-24 12:33N 49°17' W 123°04'0 0.0
2014-Nov-24 11:33N 49°17' W 123°04'0 0.0
2014-Nov-24 10:33N 49°17' W 123°04'0 0.0
2014-Nov-24 09:33N 49°17' W 123°04'0 0.0
2014-Nov-24 08:33N 49°17' W 123°04'0 0.0
2014-Nov-24 07:33N 49°17' W 123°04'0 0.0
2014-Nov-24 06:33N 49°17' W 123°04'0 0.0
2014-Nov-24 05:33N 49°17' W 123°04'0 0.0
2014-Nov-24 04:34N 49°17' W 123°04'0 0.0
2014-Nov-24 03:34N 49°17' W 123°04'0 0.0
2014-Nov-24 02:33N 49°17' W 123°04'0 0.4
2014-Nov-24 01:33N 49°18' W 123°04'2 2.4
2014-Nov-24 00:34N 49°19' W 123°07'3 2.8
2014-Nov-23 23:34N 49°17' W 123°04'9 8.9
2014-Nov-23 22:34N 49°17' W 123°17'1212.5
2014-Nov-23 21:34N 49°05' W 123°21'1312.8
2014-Nov-23 20:33N 48°56' W 123°07'1110.5
2014-Nov-23 19:34N 48°46' W 123°02'1110.8
2014-Nov-23 18:33N 48°39' W 123°14'1212.4
2014-Nov-23 17:34N 48°27' W 123°10'1111.0
2014-Nov-23 16:33N 48°20' W 123°22'3 3.3
2014-Nov-23 15:33N 48°23' W 123°22'10 9.8
2014-Nov-23 14:33N 48°31' W 123°13'1110.6
2014-Nov-23 13:33N 48°41' W 123°15'1110.1
2014-Nov-23 12:29N 48°47' W 123°01'7 8.0
2014-Nov-23 11:33N 48°53' W 123°07'1111.2
2014-Nov-23 10:33N 49°03' W 123°17'1111.2
2014-Nov-23 09:33N 49°14' W 123°18'9 9.3
2014-Nov-23 08:33N 49°18' W 123°05'5 5.5
2014-Nov-23 07:33N 49°18' W 122°57'0 0.1
2014-Nov-23 06:33N 49°18' W 122°57'2 1.9
2014-Nov-23 05:34N 49°17' W 122°54'2 2.3
2014-Nov-23 04:33N 49°18' W 122°57'4 4.1
2014-Nov-23 03:33N 49°17' W 123°04'0 0.0
2014-Nov-23 02:33N 49°17' W 123°04'0 0.0
2014-Nov-23 01:33N 49°17' W 123°04'0 0.0
2014-Nov-23 00:33N 49°17' W 123°04'0 0.0
2014-Nov-22 23:33N 49°17' W 123°04'0 0.0
2014-Nov-22 22:33N 49°17' W 123°04'0 0.0
2014-Nov-22 21:33N 49°17' W 123°04'0 0.0
2014-Nov-22 20:33N 49°17' W 123°04'0 0.0
2014-Nov-22 19:33N 49°17' W 123°04'0 0.0
2014-Nov-22 18:33N 49°17' W 123°04'0 0.0
2014-Nov-22 17:33N 49°17' W 123°04'0 0.0
2014-Nov-22 16:33N 49°17' W 123°04'0 0.0
2014-Nov-22 15:33N 49°17' W 123°04'3 2.5
2014-Nov-22 14:33N 49°19' W 123°07'1 0.8
2014-Nov-22 13:33N 49°18' W 123°06'2 1.7
2014-Nov-22 12:33N 49°17' W 123°04'0 0.0
2014-Nov-22 11:33N 49°17' W 123°04'0 0.0
2014-Nov-22 10:33N 49°17' W 123°04'0 0.0
2014-Nov-22 09:33N 49°17' W 123°04'0 0.0
2014-Nov-22 08:33N 49°17' W 123°04'0 0.0
2014-Nov-22 07:33N 49°17' W 123°04'0 0.0
2014-Nov-22 06:33N 49°17' W 123°04'0 0.0
2014-Nov-22 05:33N 49°17' W 123°04'0 0.0
2014-Nov-22 04:33N 49°17' W 123°04'0 0.0
2014-Nov-22 03:33N 49°17' W 123°04'0 0.0
2014-Nov-22 02:33N 49°17' W 123°04'0 0.0
2014-Nov-22 01:33N 49°17' W 123°04'0 0.0
2014-Nov-22 00:33N 49°17' W 123°04'0 0.0
2014-Nov-21 23:33N 49°17' W 123°04'0 0.0
2014-Nov-21 22:33N 49°17' W 123°04'0 0.0
2014-Nov-21 21:33N 49°17' W 123°04'0 0.0
2014-Nov-21 20:33N 49°17' W 123°04'0 0.0
2014-Nov-21 19:33N 49°17' W 123°04'0 0.0
2014-Nov-21 18:33N 49°17' W 123°04'0 0.0
2014-Nov-21 17:33N 49°17' W 123°04'0 0.0
2014-Nov-21 16:33N 49°17' W 123°04'1 0.8
2014-Nov-21 15:33N 49°18' W 123°03'0 0.0
2014-Nov-21 14:33N 49°18' W 123°03'1 1.4
2014-Nov-21 13:33N 49°18' W 123°05'1 1.2
2014-Nov-21 12:33N 49°17' W 123°04'0 0.0
2014-Nov-21 11:33N 49°17' W 123°04'0 0.0
2014-Nov-21 10:33N 49°17' W 123°04'0 0.0
2014-Nov-21 09:33N 49°17' W 123°04'2 1.6
2014-Nov-21 08:33N 49°18' W 123°01'1 0.8
2014-Nov-21 07:34N 49°18' W 123°00'1 0.9
2014-Nov-21 06:33N 49°18' W 122°59'2 2.5
2014-Nov-21 05:33N 49°18' W 123°03'1 0.8
2014-Nov-21 04:33N 49°17' W 123°04'0 0.0
2014-Nov-21 03:33N 49°17' W 123°04'0 0.0
2014-Nov-21 02:33N 49°17' W 123°04'0 0.0
2014-Nov-21 01:32N 49°17' W 123°04'1 0.6
2014-Nov-21 00:33N 49°18' W 123°04'1 0.6
2014-Nov-20 23:33N 49°17' W 123°04'0 0.0
2014-Nov-20 22:33N 49°17' W 123°04'6 5.6
2014-Nov-20 21:34N 49°18' W 122°55'0 0.4
2014-Nov-20 20:33N 49°17' W 122°55'6 5.9
2014-Nov-20 19:33N 49°17' W 123°04'0 0.0
2014-Nov-20 18:34N 49°17' W 123°04'0 0.0
2014-Nov-20 17:34N 49°17' W 123°04'0 0.0
2014-Nov-20 16:33N 49°17' W 123°04'0 0.0
2014-Nov-20 15:33N 49°17' W 123°04'0 0.0
2014-Nov-20 14:34N 49°17' W 123°04'0 0.0
2014-Nov-20 13:34N 49°17' W 123°04'0 0.0
2014-Nov-20 12:34N 49°17' W 123°04'0 0.0
2014-Nov-20 11:33N 49°17' W 123°04'0 0.0
2014-Nov-20 10:34N 49°17' W 123°04'0 0.0
2014-Nov-20 09:33N 49°17' W 123°04'0 0.0
2014-Nov-20 08:33N 49°17' W 123°04'0 0.0
2014-Nov-20 07:34N 49°17' W 123°04'0 0.0
2014-Nov-20 06:34N 49°17' W 123°04'0 0.0
2014-Nov-20 05:33N 49°17' W 123°04'0 0.0
2014-Nov-20 04:33N 49°17' W 123°04'0 0.0
2014-Nov-20 03:33N 49°17' W 123°04'0 0.0
2014-Nov-20 02:33N 49°17' W 123°04'0 0.0
2014-Nov-20 01:34N 49°17' W 123°04'0 0.0
2014-Nov-20 00:34N 49°17' W 123°04'0 0.0
2014-Nov-19 23:33N 49°17' W 123°04'0 0.0
2014-Nov-19 22:33N 49°17' W 123°04'0 0.0
2014-Nov-19 21:33N 49°17' W 123°04'0 0.0
2014-Nov-19 20:33N 49°17' W 123°04'0 0.0
2014-Nov-19 19:34N 49°17' W 123°04'0 0.0
2014-Nov-19 18:34N 49°17' W 123°04'0 0.0
2014-Nov-19 17:33N 49°17' W 123°04'0 0.5
2014-Nov-19 16:33N 49°17' W 123°04'1 0.5
2014-Nov-19 15:33N 49°18' W 123°05'1 0.7
2014-Nov-19 14:33N 49°17' W 123°04'1 0.9
2014-Nov-19 13:33N 49°18' W 123°04'1 0.8
2014-Nov-19 12:33N 49°18' W 123°05'1 1.2
2014-Nov-19 11:33N 49°17' W 123°04'0 0.0
2014-Nov-19 10:33N 49°17' W 123°04'0 0.0
2014-Nov-19 09:33N 49°17' W 123°04'0 0.0
2014-Nov-19 08:33N 49°17' W 123°04'0 0.0
2014-Nov-19 07:33N 49°17' W 123°04'0 0.0
2014-Nov-19 06:33N 49°17' W 123°04'1 1.4
2014-Nov-19 05:33N 49°18' W 123°06'2 1.9
2014-Nov-19 04:33N 49°18' W 123°03'0 0.2
2014-Nov-19 03:34N 49°18' W 123°03'1 0.9
2014-Nov-19 02:33N 49°17' W 123°04'0 0.0
2014-Nov-19 01:33N 49°17' W 123°04'0 0.0
2014-Nov-19 00:33N 49°17' W 123°04'0 0.0
2014-Nov-18 23:33N 49°17' W 123°04'0 0.0
2014-Nov-18 22:33N 49°17' W 123°04'0 0.0
2014-Nov-18 21:33N 49°17' W 123°04'0 0.0
2014-Nov-18 20:33N 49°17' W 123°04'0 0.0
2014-Nov-18 19:33N 49°17' W 123°04'0 0.0
2014-Nov-18 18:34N 49°17' W 123°04'0 0.0
2014-Nov-18 17:33N 49°17' W 123°04'0 0.0
2014-Nov-18 16:33N 49°17' W 123°04'0 0.0
2014-Nov-18 15:34N 49°17' W 123°04'0 0.0
2014-Nov-18 14:34N 49°17' W 123°04'2 2.3
2014-Nov-18 13:34N 49°18' W 123°07'0 0.3
2014-Nov-18 12:33N 49°19' W 123°07'5 5.2
2014-Nov-18 11:33N 49°18' W 122°59'4 4.1
2014-Nov-18 10:33N 49°18' W 122°53'0 0.0
2014-Nov-18 09:33N 49°18' W 122°53'7 7.1
2014-Nov-18 08:34N 49°17' W 123°04'0 0.0
2014-Nov-18 07:34N 49°17' W 123°04'0 0.0
2014-Nov-18 06:34N 49°17' W 123°04'0 0.0
2014-Nov-18 05:34N 49°17' W 123°04'1 1.1
2014-Nov-18 04:33N 49°18' W 123°02'1 1.1
2014-Nov-18 03:33N 49°17' W 123°04'0 0.0
2014-Nov-18 02:33N 49°17' W 123°04'0 0.0
2014-Nov-18 01:33N 49°17' W 123°04'1 1.4
2014-Nov-18 00:33N 49°17' W 123°06'1 1.1
2014-Nov-17 23:34N 49°18' W 123°05'0 0.5
2014-Nov-17 22:34N 49°18' W 123°04'1 0.7
2014-Nov-17 21:33N 49°17' W 123°04'0 0.0
2014-Nov-17 20:33N 49°17' W 123°04'0 0.0
2014-Nov-17 19:33N 49°17' W 123°04'0 0.0
2014-Nov-17 18:33N 49°17' W 123°04'0 0.0
2014-Nov-17 17:33N 49°17' W 123°04'0 0.0
2014-Nov-17 16:33N 49°17' W 123°04'0 0.0
2014-Nov-17 15:33N 49°17' W 123°04'1 1.1
2014-Nov-17 14:33N 49°18' W 123°02'1 1.1
2014-Nov-17 13:33N 49°17' W 123°04'0 0.0
2014-Nov-17 12:33N 49°17' W 123°04'0 0.4
2014-Nov-17 11:33N 49°17' W 123°04'0 0.1
2014-Nov-17 10:33N 49°17' W 123°04'5 4.7
2014-Nov-17 09:33N 49°19' W 123°11'1 1.3
2014-Nov-17 08:33N 49°19' W 123°13'6 6.4
2014-Nov-17 07:33N 49°17' W 123°04'0 0.0
2014-Nov-17 06:33N 49°17' W 123°04'0 0.0
2014-Nov-17 05:33N 49°17' W 123°04'  

Dump ship's entire track history